createdAt,value
2022-09-28T00:02:21.998Z,11.70
2022-09-28T00:04:49.071Z,11.70
2022-09-28T00:07:15.988Z,11.60
2022-09-28T00:09:43.377Z,11.60
2022-09-28T00:12:10.535Z,11.60
2022-09-28T00:14:37.635Z,11.60
2022-09-28T00:17:04.485Z,11.50
2022-09-28T00:19:31.355Z,11.50
2022-09-28T00:21:58.298Z,11.50
2022-09-28T00:24:27.694Z,11.50
2022-09-28T00:26:55.859Z,11.50
2022-09-28T00:29:24.022Z,11.50
2022-09-28T00:32:00.067Z,11.50
2022-09-28T00:34:27.560Z,11.50
2022-09-28T00:36:54.700Z,11.50
2022-09-28T00:39:21.724Z,11.50
2022-09-28T00:41:48.668Z,11.50
2022-09-28T00:44:24.675Z,11.50
2022-09-28T00:47:02.690Z,11.40
2022-09-28T00:49:49.752Z,11.40
2022-09-28T00:52:20.197Z,11.40
2022-09-28T00:54:48.102Z,11.30
2022-09-28T00:57:15.543Z,11.20
2022-09-28T00:59:42.725Z,11.20
2022-09-28T01:02:10.790Z,11.20
2022-09-28T01:04:39.257Z,11.20
2022-09-28T01:07:06.676Z,11.10
2022-09-28T01:09:33.797Z,11.10
2022-09-28T01:12:00.942Z,11.10
2022-09-28T01:14:27.880Z,11.10
2022-09-28T01:17:13.786Z,11.00
2022-09-28T01:19:46.460Z,11.00
2022-09-28T01:22:19.068Z,10.90
2022-09-28T01:24:46.737Z,10.90
2022-09-28T01:27:13.703Z,11.00
2022-09-28T01:29:49.500Z,11.00
2022-09-28T01:32:35.077Z,11.00
2022-09-28T01:35:28.024Z,11.00
2022-09-28T01:37:54.920Z,11.00
2022-09-28T01:40:22.979Z,11.00
2022-09-28T01:43:13.061Z,11.00
2022-09-28T01:45:54.949Z,11.00
2022-09-28T01:48:26.705Z,11.00
2022-09-28T01:50:56.294Z,11.00
2022-09-28T01:53:25.176Z,11.00
2022-09-28T01:55:55.066Z,11.00
2022-09-28T01:58:33.806Z,11.00
2022-09-28T02:01:03.297Z,11.00
2022-09-28T02:03:39.948Z,11.00
2022-09-28T02:06:11.960Z,11.00
2022-09-28T02:08:47.010Z,11.00
2022-09-28T02:11:15.858Z,10.90
2022-09-28T02:13:45.474Z,11.00
2022-09-28T02:16:12.320Z,10.90
2022-09-28T02:18:39.173Z,10.90
2022-09-28T02:21:09.112Z,10.90
2022-09-28T02:23:38.122Z,10.90
2022-09-28T02:26:10.909Z,10.90
2022-09-28T02:28:37.798Z,10.90
2022-09-28T02:31:04.747Z,10.90
2022-09-28T02:33:36.909Z,10.90
2022-09-28T02:36:03.875Z,10.90
2022-09-28T02:38:31.442Z,10.90
2022-09-28T02:41:09.213Z,10.90
2022-09-28T02:43:51.484Z,10.90
2022-09-28T02:46:29.746Z,10.90
2022-09-28T02:49:17.413Z,10.90
2022-09-28T02:52:06.621Z,10.90
2022-09-28T02:54:48.595Z,10.90
2022-09-28T02:57:41.436Z,10.90
2022-09-28T03:00:26.181Z,10.90
2022-09-28T03:03:04.332Z,10.90
2022-09-28T03:05:45.315Z,10.90
2022-09-28T03:08:20.929Z,10.90
2022-09-28T03:10:54.141Z,10.90
2022-09-28T03:13:21.083Z,10.90
2022-09-28T03:15:49.036Z,10.90
2022-09-28T03:18:16.517Z,10.80
2022-09-28T03:20:43.408Z,10.80
2022-09-28T03:23:24.426Z,10.80
2022-09-28T03:25:52.099Z,10.80
2022-09-28T03:28:19.041Z,10.70
2022-09-28T03:30:45.857Z,10.70
2022-09-28T03:33:13.030Z,10.70
2022-09-28T03:35:39.901Z,10.70
2022-09-28T03:38:06.815Z,10.70
2022-09-28T03:40:33.714Z,10.70
2022-09-28T03:43:00.864Z,10.70
2022-09-28T03:45:27.844Z,10.70
2022-09-28T03:47:54.941Z,10.70
2022-09-28T03:50:22.091Z,10.60
2022-09-28T03:52:49.090Z,10.60
2022-09-28T03:55:15.938Z,10.70
2022-09-28T03:57:42.804Z,10.70
2022-09-28T04:00:10.629Z,10.60
2022-09-28T04:02:37.549Z,10.60
2022-09-28T04:05:04.571Z,10.60
2022-09-28T04:07:31.514Z,10.60
2022-09-28T04:09:58.390Z,10.60
2022-09-28T04:12:25.198Z,10.50
2022-09-28T04:14:52.350Z,10.50
2022-09-28T04:17:19.305Z,10.50
2022-09-28T04:19:47.565Z,10.40
2022-09-28T04:22:14.414Z,10.40
2022-09-28T04:24:43.645Z,10.40
2022-09-28T04:27:28.994Z,10.30
2022-09-28T04:29:55.868Z,10.30
2022-09-28T04:32:22.834Z,10.30
2022-09-28T04:34:49.713Z,10.30
2022-09-28T04:37:16.597Z,10.20
2022-09-28T04:39:48.038Z,10.20
2022-09-28T04:42:16.016Z,10.20
2022-09-28T04:44:42.986Z,10.20
2022-09-28T04:47:09.833Z,10.10
2022-09-28T04:49:38.500Z,10.10
2022-09-28T04:52:05.498Z,10.10
2022-09-28T04:54:32.331Z,10.00
2022-09-28T04:56:59.173Z,10.00
2022-09-28T04:59:26.229Z,10.00
2022-09-28T05:01:54.335Z,10.00
2022-09-28T05:04:25.619Z,10.00
2022-09-28T05:06:52.963Z,10.00
2022-09-28T05:09:19.825Z,10.00
2022-09-28T05:11:48.946Z,10.00
2022-09-28T05:14:16.514Z,10.00
2022-09-28T05:16:44.914Z,10.00
2022-09-28T05:19:12.644Z,9.90
2022-09-28T05:21:39.643Z,9.90
2022-09-28T05:24:07.852Z,9.90
2022-09-28T05:26:34.786Z,9.90
2022-09-28T05:29:01.646Z,9.80
2022-09-28T05:31:28.683Z,9.90
2022-09-28T05:33:55.814Z,9.90
2022-09-28T05:36:22.675Z,9.80
2022-09-28T05:38:49.509Z,9.80
2022-09-28T05:41:16.334Z,9.80
2022-09-28T05:43:44.403Z,9.80
2022-09-28T05:46:11.521Z,9.80
2022-09-28T05:48:38.423Z,9.70
2022-09-28T05:51:05.285Z,9.70
2022-09-28T05:53:32.179Z,9.70
2022-09-28T05:55:59.558Z,9.70
2022-09-28T05:58:26.429Z,9.80
2022-09-28T06:00:56.837Z,9.70
2022-09-28T06:03:24.013Z,9.70
2022-09-28T06:05:51.221Z,9.70
2022-09-28T06:08:18.385Z,9.70
2022-09-28T06:10:45.467Z,9.70
2022-09-28T06:13:12.546Z,9.70
2022-09-28T06:15:42.358Z,9.70
2022-09-28T06:18:16.749Z,9.70
2022-09-28T06:20:43.681Z,9.70
2022-09-28T06:23:11.611Z,9.70
2022-09-28T06:25:38.660Z,9.70
2022-09-28T06:28:07.143Z,9.70
2022-09-28T06:30:35.071Z,9.70
2022-09-28T06:33:02.432Z,9.80
2022-09-28T06:35:32.142Z,9.80
2022-09-28T06:38:00.152Z,9.90
2022-09-28T06:40:27.233Z,9.90
2022-09-28T06:43:07.137Z,9.90
2022-09-28T06:45:33.954Z,9.90
2022-09-28T06:48:01.380Z,10.00
2022-09-28T06:50:32.399Z,10.00
2022-09-28T06:53:00.034Z,10.10
2022-09-28T06:55:27.436Z,10.20
2022-09-28T06:57:59.190Z,10.20
2022-09-28T07:00:29.839Z,10.30
2022-09-28T07:02:56.916Z,10.30
2022-09-28T07:05:27.069Z,10.30
2022-09-28T07:07:57.544Z,10.30
2022-09-28T07:10:24.985Z,10.30
2022-09-28T07:12:52.033Z,10.40
2022-09-28T07:15:19.222Z,10.40
2022-09-28T07:17:57.694Z,10.40
2022-09-28T07:20:28.058Z,10.50
2022-09-28T07:23:15.416Z,10.50
2022-09-28T07:25:48.023Z,10.60
2022-09-28T07:28:15.404Z,10.70
2022-09-28T07:30:44.385Z,10.70
2022-09-28T07:33:12.788Z,10.80
2022-09-28T07:35:41.949Z,10.80
2022-09-28T07:38:10.133Z,10.90
2022-09-28T07:40:56.390Z,11.00
2022-09-28T07:43:23.362Z,11.00
2022-09-28T07:45:51.245Z,11.10
2022-09-28T07:48:18.980Z,11.10
2022-09-28T07:50:51.831Z,11.10
2022-09-28T07:53:19.451Z,11.10
2022-09-28T07:55:53.034Z,11.20
2022-09-28T07:58:20.927Z,11.20
2022-09-28T08:00:49.380Z,11.20
2022-09-28T08:03:20.332Z,11.20
2022-09-28T08:05:47.600Z,11.20
2022-09-28T08:08:15.158Z,11.20
2022-09-28T08:10:46.505Z,11.20
2022-09-28T08:13:15.416Z,11.20
2022-09-28T08:15:42.777Z,11.40
2022-09-28T08:18:09.818Z,11.50
2022-09-28T08:20:55.385Z,11.50
2022-09-28T08:23:23.430Z,11.50
2022-09-28T08:25:51.049Z,11.60
2022-09-28T08:28:18.066Z,11.60
2022-09-28T08:30:46.086Z,11.60
2022-09-28T08:33:14.015Z,11.70
2022-09-28T08:35:41.420Z,11.80
2022-09-28T08:38:08.681Z,11.90
2022-09-28T08:40:39.224Z,11.90
2022-09-28T08:43:14.250Z,12.00
2022-09-28T08:45:41.140Z,12.10
2022-09-28T08:48:29.938Z,12.30
2022-09-28T08:50:59.705Z,12.40
2022-09-28T08:53:26.453Z,12.50
2022-09-28T08:55:53.329Z,12.60
2022-09-28T08:58:31.562Z,12.70
2022-09-28T09:00:59.387Z,12.70
2022-09-28T09:03:36.993Z,12.90
2022-09-28T09:06:18.778Z,13.10
2022-09-28T09:08:45.731Z,13.30
2022-09-28T09:11:15.640Z,13.40
2022-09-28T09:13:57.576Z,13.50
2022-09-28T09:16:36.438Z,13.60
2022-09-28T09:19:17.626Z,13.70
2022-09-28T09:21:50.659Z,13.80
2022-09-28T09:24:40.644Z,13.90
2022-09-28T09:27:14.483Z,14.00
2022-09-28T09:30:11.778Z,14.20
2022-09-28T09:32:38.635Z,14.20
2022-09-28T09:35:11.551Z,14.30
2022-09-28T09:37:58.651Z,14.40
2022-09-28T09:40:26.443Z,14.40
2022-09-28T09:42:59.717Z,14.50
2022-09-28T09:45:41.730Z,14.50
2022-09-28T09:48:25.529Z,14.60
2022-09-28T09:50:57.991Z,14.60
2022-09-28T09:53:38.817Z,14.70
2022-09-28T09:56:13.397Z,14.60
2022-09-28T09:58:48.926Z,14.60
2022-09-28T10:01:17.672Z,14.60
2022-09-28T10:03:48.316Z,14.70
2022-09-28T10:06:25.321Z,14.80
2022-09-28T10:09:12.699Z,14.80
2022-09-28T10:11:42.743Z,15.00
2022-09-28T10:14:22.586Z,15.10
2022-09-28T10:16:53.837Z,15.20
2022-09-28T10:19:23.812Z,15.40
2022-09-28T10:21:52.035Z,15.40
2022-09-28T10:24:22.926Z,15.40
2022-09-28T10:26:53.251Z,15.40
2022-09-28T10:29:21.441Z,15.50
2022-09-28T10:31:52.252Z,15.50
2022-09-28T10:34:25.004Z,15.50
2022-09-28T10:36:56.182Z,15.60
2022-09-28T10:39:29.581Z,15.60
2022-09-28T10:41:58.773Z,15.50
2022-09-28T10:44:26.282Z,15.50
2022-09-28T10:46:57.066Z,15.60
2022-09-28T10:49:24.208Z,15.60
2022-09-28T10:51:53.679Z,15.60
2022-09-28T10:54:30.629Z,15.70
2022-09-28T10:56:58.396Z,15.70
2022-09-28T10:59:31.552Z,15.70
2022-09-28T11:02:00.801Z,15.70
2022-09-28T11:04:38.396Z,15.70
2022-09-28T11:07:05.282Z,15.70
2022-09-28T11:09:32.954Z,15.60
2022-09-28T11:12:00.326Z,15.60
2022-09-28T11:14:41.127Z,15.50
2022-09-28T11:17:18.308Z,15.50
2022-09-28T11:19:45.715Z,15.50
2022-09-28T11:22:26.526Z,15.50
2022-09-28T11:25:12.218Z,15.50
2022-09-28T11:27:39.123Z,15.50
2022-09-28T11:30:06.483Z,15.50
2022-09-28T11:32:42.045Z,15.50
2022-09-28T11:35:16.679Z,15.50
2022-09-28T11:37:58.884Z,15.50
2022-09-28T11:40:25.702Z,15.50
2022-09-28T11:43:00.938Z,15.50
2022-09-28T11:45:33.175Z,15.50
2022-09-28T11:48:02.181Z,15.60
2022-09-28T11:50:29.253Z,15.70
2022-09-28T11:53:02.466Z,15.70
2022-09-28T11:55:44.452Z,15.80
2022-09-28T11:58:26.586Z,15.90
2022-09-28T12:00:57.048Z,16.00
2022-09-28T12:03:28.775Z,16.20
2022-09-28T12:06:05.260Z,16.20
2022-09-28T12:08:34.357Z,16.30
2022-09-28T12:11:05.138Z,16.30
2022-09-28T12:13:37.551Z,16.40
2022-09-28T12:16:27.581Z,16.50
2022-09-28T12:21:29.787Z,16.50
2022-09-28T12:24:04.043Z,16.40
2022-09-28T12:26:49.455Z,16.40
2022-09-28T12:29:20.666Z,16.40
2022-09-28T12:31:54.363Z,16.40
2022-09-28T12:34:22.333Z,16.60
2022-09-28T12:37:05.657Z,16.80
2022-09-28T12:39:58.537Z,16.90
2022-09-28T12:42:44.435Z,17.20
2022-09-28T12:45:18.049Z,17.40
2022-09-28T12:48:08.290Z,17.40
2022-09-28T12:50:57.409Z,17.60
2022-09-28T12:53:31.262Z,17.60
2022-09-28T12:56:02.011Z,17.60
2022-09-28T12:58:31.933Z,17.70
2022-09-28T13:01:15.687Z,17.70
2022-09-28T13:03:46.116Z,17.60
2022-09-28T13:06:32.165Z,17.30
2022-09-28T13:09:01.714Z,17.10
2022-09-28T13:11:32.201Z,17.00
2022-09-28T13:14:08.359Z,16.80
2022-09-28T13:16:46.163Z,16.70
2022-09-28T13:19:39.308Z,16.60
2022-09-28T13:22:23.330Z,16.50
2022-09-28T13:24:50.626Z,16.30
2022-09-28T13:27:20.609Z,16.30
2022-09-28T13:29:50.507Z,16.20
2022-09-28T13:32:18.633Z,16.10
2022-09-28T13:34:48.574Z,16.10
2022-09-28T13:37:19.990Z,16.00
2022-09-28T13:40:00.053Z,16.00
2022-09-28T13:42:45.133Z,16.00
2022-09-28T13:45:18.054Z,15.90
2022-09-28T13:47:47.895Z,15.90
2022-09-28T13:50:17.602Z,15.80
2022-09-28T13:52:56.595Z,15.80
2022-09-28T13:55:33.065Z,15.80
2022-09-28T13:58:15.202Z,15.80
2022-09-28T14:00:58.511Z,15.80
2022-09-28T14:03:25.606Z,15.80
2022-09-28T14:05:52.467Z,15.90
2022-09-28T14:08:26.260Z,16.00
2022-09-28T14:10:54.169Z,16.10
2022-09-28T14:13:39.562Z,16.00
2022-09-28T14:16:18.412Z,16.00
2022-09-28T14:18:49.443Z,16.00
2022-09-28T14:21:22.433Z,16.10
2022-09-28T14:24:00.187Z,16.10
2022-09-28T14:26:27.165Z,16.20
2022-09-28T14:29:09.264Z,16.20
2022-09-28T14:31:40.606Z,16.20
2022-09-28T14:34:22.606Z,16.30
2022-09-28T14:37:08.171Z,16.50
2022-09-28T14:39:55.182Z,16.70
2022-09-28T14:42:23.375Z,16.80
2022-09-28T14:45:06.088Z,16.90
2022-09-28T14:47:34.259Z,17.10
2022-09-28T14:50:14.819Z,17.20
2022-09-28T14:52:51.837Z,17.30
2022-09-28T14:55:21.660Z,17.30
2022-09-28T14:57:52.325Z,17.40
2022-09-28T15:00:21.150Z,17.50
2022-09-28T15:02:49.538Z,17.40
2022-09-28T15:05:18.450Z,17.40
2022-09-28T15:07:52.496Z,17.50
2022-09-28T15:10:28.467Z,17.50
2022-09-28T15:12:56.213Z,17.70
2022-09-28T15:15:28.973Z,17.60
2022-09-28T15:18:02.409Z,17.60
2022-09-28T15:20:30.722Z,17.60
2022-09-28T15:22:58.835Z,17.60
2022-09-28T15:25:30.514Z,17.60
2022-09-28T15:28:04.723Z,17.50
2022-09-28T15:30:32.966Z,17.40
2022-09-28T15:33:20.777Z,17.30
2022-09-28T15:35:59.728Z,17.30
2022-09-28T15:38:26.677Z,17.30
2022-09-28T15:40:53.737Z,17.30
2022-09-28T15:43:24.260Z,17.10
2022-09-28T15:46:02.783Z,17.00
2022-09-28T15:48:39.441Z,16.90
2022-09-28T15:51:11.069Z,16.90
2022-09-28T15:53:56.183Z,16.80
2022-09-28T15:56:23.107Z,16.80
2022-09-28T15:59:17.497Z,16.70
2022-09-28T16:01:45.009Z,16.60
2022-09-28T16:04:30.536Z,16.60
2022-09-28T16:07:15.921Z,16.50
2022-09-28T16:10:02.492Z,16.40
2022-09-28T16:12:38.598Z,16.20
2022-09-28T16:15:07.494Z,16.10
2022-09-28T16:17:35.473Z,16.00
2022-09-28T16:20:03.990Z,16.00
2022-09-28T16:22:32.902Z,16.00
2022-09-28T16:25:00.982Z,15.80
2022-09-28T16:27:40.274Z,15.80
2022-09-28T16:30:15.200Z,15.80
2022-09-28T16:32:49.078Z,15.80
2022-09-28T16:35:21.524Z,15.80
2022-09-28T16:37:49.497Z,15.80
2022-09-28T16:40:16.595Z,15.80
2022-09-28T16:42:48.864Z,15.80
2022-09-28T16:45:23.959Z,15.70
2022-09-28T16:47:53.185Z,15.70
2022-09-28T16:50:21.430Z,15.60
2022-09-28T16:53:15.189Z,15.60
2022-09-28T16:55:42.032Z,15.60
2022-09-28T16:58:08.981Z,15.70
2022-09-28T17:00:36.468Z,15.70
2022-09-28T17:03:11.466Z,15.70
2022-09-28T17:05:40.283Z,15.70
2022-09-28T17:08:07.289Z,15.60
2022-09-28T17:10:50.191Z,15.60
2022-09-28T17:13:31.669Z,15.40
2022-09-28T17:15:58.684Z,15.30
2022-09-28T17:18:25.909Z,15.30
2022-09-28T17:20:55.229Z,15.20
2022-09-28T17:23:22.072Z,15.10
2022-09-28T17:25:49.180Z,15.00
2022-09-28T17:28:19.186Z,14.90
2022-09-28T17:30:46.104Z,14.80
2022-09-28T17:33:13.676Z,14.70
2022-09-28T17:35:41.190Z,14.60
2022-09-28T17:38:09.471Z,14.50
2022-09-28T17:40:36.551Z,14.40
2022-09-28T17:43:05.872Z,14.30
2022-09-28T17:45:33.823Z,14.20
2022-09-28T17:48:00.969Z,14.00
2022-09-28T17:50:29.891Z,13.90
2022-09-28T17:52:58.067Z,13.80
2022-09-28T17:55:29.718Z,13.80
2022-09-28T17:57:56.532Z,13.70
2022-09-28T18:00:27.397Z,13.60
2022-09-28T18:02:55.260Z,13.50
2022-09-28T18:05:23.879Z,13.40
2022-09-28T18:07:51.096Z,13.30
2022-09-28T18:10:19.953Z,13.20
2022-09-28T18:12:46.948Z,13.10
2022-09-28T18:15:14.785Z,13.00
2022-09-28T18:17:41.630Z,13.00
2022-09-28T18:20:09.292Z,12.90
2022-09-28T18:22:36.144Z,12.80
2022-09-28T18:25:03.632Z,12.80
2022-09-28T18:27:31.144Z,12.70
2022-09-28T18:29:58.035Z,12.70
2022-09-28T18:32:24.984Z,12.60
2022-09-28T18:34:51.862Z,12.50
2022-09-28T18:37:18.929Z,12.50
2022-09-28T18:39:45.854Z,12.40
2022-09-28T18:42:13.495Z,12.40
2022-09-28T18:44:40.479Z,12.30
2022-09-28T18:47:07.463Z,12.20
2022-09-28T18:49:34.643Z,12.20
2022-09-28T18:52:01.713Z,12.10
2022-09-28T18:54:28.655Z,12.10
2022-09-28T18:56:56.524Z,12.10
2022-09-28T18:59:23.944Z,12.00
2022-09-28T19:01:51.822Z,12.00
2022-09-28T19:04:20.621Z,12.00
2022-09-28T19:06:51.930Z,11.90
2022-09-28T19:09:20.260Z,11.90
2022-09-28T19:11:47.674Z,11.80
2022-09-28T19:14:17.308Z,11.80
2022-09-28T19:16:44.790Z,11.70
2022-09-28T19:19:13.088Z,11.70
2022-09-28T19:21:40.541Z,11.70
2022-09-28T19:24:07.401Z,11.60
2022-09-28T19:26:34.243Z,11.60
2022-09-28T19:29:02.918Z,11.60
2022-09-28T19:31:30.826Z,11.50
2022-09-28T19:33:57.735Z,11.40
2022-09-28T19:36:25.129Z,11.40
2022-09-28T19:38:52.273Z,11.30
2022-09-28T19:41:42.687Z,11.30
2022-09-28T19:44:23.267Z,11.20
2022-09-28T19:47:00.625Z,11.10
2022-09-28T19:49:27.974Z,11.10
2022-09-28T19:52:14.280Z,11.00
2022-09-28T19:54:45.421Z,11.00
2022-09-28T19:57:13.362Z,11.00
2022-09-28T19:59:40.219Z,10.90
2022-09-28T20:02:07.625Z,10.90
2022-09-28T20:04:34.445Z,10.80
2022-09-28T20:07:01.995Z,10.70
2022-09-28T20:09:29.054Z,10.70
2022-09-28T20:11:55.980Z,10.70
2022-09-28T20:14:24.610Z,10.60
2022-09-28T20:16:55.277Z,10.60
2022-09-28T20:19:23.374Z,10.60
2022-09-28T20:21:50.380Z,10.50
2022-09-28T20:24:17.754Z,10.50
2022-09-28T20:26:46.054Z,10.50
2022-09-28T20:29:13.210Z,10.60
2022-09-28T20:31:40.506Z,10.80
2022-09-28T20:34:07.678Z,10.90
2022-09-28T20:36:34.655Z,11.10
2022-09-28T20:39:03.648Z,11.20
2022-09-28T20:41:35.749Z,11.30
2022-09-28T20:44:05.582Z,11.30
2022-09-28T20:46:33.449Z,11.40
2022-09-28T20:49:00.612Z,11.40
2022-09-28T20:51:27.561Z,11.40
2022-09-28T20:53:55.266Z,11.50
2022-09-28T20:56:23.366Z,11.60
2022-09-28T20:58:51.253Z,11.60
2022-09-28T21:01:20.196Z,11.60
2022-09-28T21:03:48.360Z,11.60
2022-09-28T21:06:16.627Z,11.60
2022-09-28T21:08:44.499Z,11.60
2022-09-28T21:11:14.973Z,11.60
2022-09-28T21:13:43.043Z,11.50
2022-09-28T21:16:11.091Z,11.50
2022-09-28T21:18:38.440Z,11.50
2022-09-28T21:21:06.565Z,11.50
2022-09-28T21:23:33.831Z,11.50
2022-09-28T21:26:05.610Z,11.50
2022-09-28T21:28:32.850Z,11.50
2022-09-28T21:30:59.773Z,11.50
2022-09-28T21:33:26.623Z,11.50
2022-09-28T21:35:53.523Z,11.50
2022-09-28T21:38:20.485Z,11.50
2022-09-28T21:40:47.708Z,11.50
2022-09-28T21:43:14.632Z,11.50
2022-09-28T21:45:41.417Z,11.50
2022-09-28T21:48:09.173Z,11.40
2022-09-28T21:50:35.999Z,11.40
2022-09-28T21:53:03.442Z,11.40
2022-09-28T21:55:30.424Z,11.30
2022-09-28T21:57:57.259Z,11.30
2022-09-28T22:00:24.425Z,11.20
2022-09-28T22:02:53.385Z,11.20
2022-09-28T22:05:21.310Z,11.20
2022-09-28T22:07:48.121Z,11.20
2022-09-28T22:10:15.175Z,11.10
2022-09-28T22:12:42.114Z,11.10
2022-09-28T22:15:09.546Z,11.10
2022-09-28T22:17:36.417Z,11.10
2022-09-28T22:20:03.949Z,11.00
2022-09-28T22:22:30.915Z,11.00
2022-09-28T22:24:57.830Z,11.00
2022-09-28T22:27:24.708Z,11.00
2022-09-28T22:29:52.234Z,10.90
2022-09-28T22:32:19.103Z,10.90
2022-09-28T22:34:45.942Z,10.90
2022-09-28T22:37:13.102Z,10.90
2022-09-28T22:39:41.220Z,10.80
2022-09-28T22:42:08.474Z,10.80
2022-09-28T22:44:36.030Z,10.80
2022-09-28T22:47:03.693Z,10.80
2022-09-28T22:49:31.724Z,10.70
2022-09-28T22:51:58.608Z,10.70
2022-09-28T22:54:25.647Z,10.60
2022-09-28T22:56:52.595Z,10.60
2022-09-28T22:59:19.524Z,10.60
2022-09-28T23:01:46.712Z,10.60
2022-09-28T23:04:13.761Z,10.50
2022-09-28T23:06:41.365Z,10.50
2022-09-28T23:09:08.233Z,10.50
2022-09-28T23:11:35.151Z,10.50
2022-09-28T23:14:02.104Z,10.40
2022-09-28T23:16:30.262Z,10.40
2022-09-28T23:18:57.593Z,10.40
2022-09-28T23:21:26.188Z,10.30
2022-09-28T23:23:54.507Z,10.30
2022-09-28T23:26:23.062Z,10.30
2022-09-28T23:28:50.514Z,10.20
2022-09-28T23:31:22.494Z,10.20
2022-09-28T23:33:49.756Z,10.20
2022-09-28T23:36:19.468Z,10.20
2022-09-28T23:38:46.357Z,10.10
2022-09-28T23:41:13.260Z,10.10
2022-09-28T23:43:40.398Z,10.10
2022-09-28T23:46:07.929Z,10.10
2022-09-28T23:48:34.796Z,10.00
2022-09-28T23:51:02.287Z,10.00
2022-09-28T23:53:29.435Z,10.00
2022-09-28T23:55:56.285Z,9.90
2022-09-28T23:58:23.229Z,9.90
